sensor_id;sensor_type;location;lat;lon;timestamp;P1;durP1;ratioP1;P2;durP2;ratioP2
54561;SDS011;69047;53.358;-1.486;2023-04-29T00:01:06;4.47;;;2.78;;
54561;SDS011;69047;53.358;-1.486;2023-04-29T00:03:32;5.43;;;2.90;;
54561;SDS011;69047;53.358;-1.486;2023-04-29T00:05:58;3.58;;;2.38;;
54561;SDS011;69047;53.358;-1.486;2023-04-29T00:08:25;4.03;;;2.90;;
54561;SDS011;69047;53.358;-1.486;2023-04-29T00:10:51;3.67;;;2.22;;
54561;SDS011;69047;53.358;-1.486;2023-04-29T00:13:16;4.18;;;2.55;;
54561;SDS011;69047;53.358;-1.486;2023-04-29T00:15:43;5.70;;;2.50;;
54561;SDS011;69047;53.358;-1.486;2023-04-29T00:18:14;4.50;;;2.63;;
54561;SDS011;69047;53.358;-1.486;2023-04-29T00:20:44;4.25;;;2.60;;
54561;SDS011;69047;53.358;-1.486;2023-04-29T00:23:11;2.92;;;2.00;;
54561;SDS011;69047;53.358;-1.486;2023-04-29T00:25:37;3.85;;;2.28;;
54561;SDS011;69047;53.358;-1.486;2023-04-29T00:28:03;5.07;;;2.80;;
54561;SDS011;69047;53.358;-1.486;2023-04-29T00:30:30;3.42;;;2.10;;
54561;SDS011;69047;53.358;-1.486;2023-04-29T00:32:56;5.05;;;2.65;;
54561;SDS011;69047;53.358;-1.486;2023-04-29T00:35:21;5.07;;;2.85;;
54561;SDS011;69047;53.358;-1.486;2023-04-29T00:37:47;3.10;;;2.38;;
54561;SDS011;69047;53.358;-1.486;2023-04-29T00:40:12;3.17;;;2.50;;
54561;SDS011;69047;53.358;-1.486;2023-04-29T00:42:39;3.28;;;2.30;;
54561;SDS011;69047;53.358;-1.486;2023-04-29T00:45:05;5.00;;;2.67;;
54561;SDS011;69047;53.358;-1.486;2023-04-29T00:47:31;4.63;;;2.17;;
54561;SDS011;69047;53.358;-1.486;2023-04-29T00:49:57;2.58;;;1.77;;
54561;SDS011;69047;53.358;-1.486;2023-04-29T00:52:22;3.25;;;2.13;;
54561;SDS011;69047;53.358;-1.486;2023-04-29T00:54:48;4.57;;;1.88;;
54561;SDS011;69047;53.358;-1.486;2023-04-29T00:57:14;3.30;;;2.08;;
54561;SDS011;69047;53.358;-1.486;2023-04-29T00:59:40;3.38;;;2.08;;
54561;SDS011;69047;53.358;-1.486;2023-04-29T01:02:05;2.95;;;1.90;;
54561;SDS011;69047;53.358;-1.486;2023-04-29T01:04:31;3.55;;;1.92;;
54561;SDS011;69047;53.358;-1.486;2023-04-29T01:07:04;3.17;;;1.80;;
54561;SDS011;69047;53.358;-1.486;2023-04-29T01:12:19;3.45;;;1.95;;
54561;SDS011;69047;53.358;-1.486;2023-04-29T01:15:22;2.70;;;1.95;;
54561;SDS011;69047;53.358;-1.486;2023-04-29T01:17:49;3.67;;;2.05;;
54561;SDS011;69047;53.358;-1.486;2023-04-29T01:20:19;2.13;;;1.65;;
54561;SDS011;69047;53.358;-1.486;2023-04-29T01:22:45;2.42;;;1.83;;
54561;SDS011;69047;53.358;-1.486;2023-04-29T01:25:11;3.00;;;2.15;;
54561;SDS011;69047;53.358;-1.486;2023-04-29T01:30:30;3.00;;;1.88;;
54561;SDS011;69047;53.358;-1.486;2023-04-29T01:41:15;2.30;;;1.65;;
54561;SDS011;69047;53.358;-1.486;2023-04-29T01:43:41;3.05;;;2.08;;
54561;SDS011;69047;53.358;-1.486;2023-04-29T01:46:10;3.78;;;1.92;;
54561;SDS011;69047;53.358;-1.486;2023-04-29T01:48:37;2.97;;;1.85;;
54561;SDS011;69047;53.358;-1.486;2023-04-29T01:51:03;3.60;;;2.08;;
54561;SDS011;69047;53.358;-1.486;2023-04-29T01:53:30;2.47;;;1.90;;
54561;SDS011;69047;53.358;-1.486;2023-04-29T01:55:55;2.42;;;1.60;;
54561;SDS011;69047;53.358;-1.486;2023-04-29T01:58:21;3.97;;;1.85;;
54561;SDS011;69047;53.358;-1.486;2023-04-29T02:00:46;2.38;;;1.52;;
54561;SDS011;69047;53.358;-1.486;2023-04-29T02:03:11;2.42;;;1.90;;
54561;SDS011;69047;53.358;-1.486;2023-04-29T02:05:37;1.85;;;1.60;;
54561;SDS011;69047;53.358;-1.486;2023-04-29T02:08:03;2.78;;;2.00;;
54561;SDS011;69047;53.358;-1.486;2023-04-29T02:10:31;1.73;;;1.50;;
54561;SDS011;69047;53.358;-1.486;2023-04-29T02:12:57;3.03;;;1.85;;
54561;SDS011;69047;53.358;-1.486;2023-04-29T02:15:24;2.63;;;1.63;;
54561;SDS011;69047;53.358;-1.486;2023-04-29T02:17:51;2.20;;;1.50;;
54561;SDS011;69047;53.358;-1.486;2023-04-29T02:20:17;2.30;;;1.60;;
54561;SDS011;69047;53.358;-1.486;2023-04-29T02:22:42;2.22;;;1.80;;
54561;SDS011;69047;53.358;-1.486;2023-04-29T02:25:08;2.72;;;1.83;;
54561;SDS011;69047;53.358;-1.486;2023-04-29T02:27:34;1.92;;;1.52;;
54561;SDS011;69047;53.358;-1.486;2023-04-29T02:29:59;6.43;;;1.88;;
54561;SDS011;69047;53.358;-1.486;2023-04-29T02:32:24;1.63;;;1.33;;
54561;SDS011;69047;53.358;-1.486;2023-04-29T02:34:50;2.17;;;1.70;;
54561;SDS011;69047;53.358;-1.486;2023-04-29T02:37:15;2.35;;;1.77;;
54561;SDS011;69047;53.358;-1.486;2023-04-29T02:39:41;2.33;;;1.63;;
54561;SDS011;69047;53.358;-1.486;2023-04-29T02:42:06;2.50;;;1.35;;
54561;SDS011;69047;53.358;-1.486;2023-04-29T02:44:32;2.03;;;1.40;;
54561;SDS011;69047;53.358;-1.486;2023-04-29T02:46:57;3.03;;;2.13;;
54561;SDS011;69047;53.358;-1.486;2023-04-29T02:49:22;3.45;;;2.10;;
54561;SDS011;69047;53.358;-1.486;2023-04-29T02:51:48;2.65;;;2.05;;
54561;SDS011;69047;53.358;-1.486;2023-04-29T02:54:16;2.25;;;1.80;;
54561;SDS011;69047;53.358;-1.486;2023-04-29T02:56:42;1.92;;;1.60;;
54561;SDS011;69047;53.358;-1.486;2023-04-29T02:59:08;2.58;;;1.63;;
54561;SDS011;69047;53.358;-1.486;2023-04-29T03:01:33;3.25;;;2.15;;
54561;SDS011;69047;53.358;-1.486;2023-04-29T03:03:59;4.22;;;2.10;;
54561;SDS011;69047;53.358;-1.486;2023-04-29T03:06:25;2.10;;;1.67;;
54561;SDS011;69047;53.358;-1.486;2023-04-29T03:08:51;2.38;;;1.98;;
54561;SDS011;69047;53.358;-1.486;2023-04-29T03:11:17;3.25;;;1.92;;
54561;SDS011;69047;53.358;-1.486;2023-04-29T03:13:43;2.80;;;1.65;;
54561;SDS011;69047;53.358;-1.486;2023-04-29T03:16:09;2.90;;;1.65;;
54561;SDS011;69047;53.358;-1.486;2023-04-29T03:18:37;3.70;;;1.95;;
54561;SDS011;69047;53.358;-1.486;2023-04-29T03:21:03;3.13;;;1.65;;
54561;SDS011;69047;53.358;-1.486;2023-04-29T03:23:28;2.95;;;1.88;;
54561;SDS011;69047;53.358;-1.486;2023-04-29T03:25:54;4.75;;;2.25;;
54561;SDS011;69047;53.358;-1.486;2023-04-29T03:28:19;2.35;;;1.70;;
54561;SDS011;69047;53.358;-1.486;2023-04-29T03:30:45;2.13;;;1.60;;
54561;SDS011;69047;53.358;-1.486;2023-04-29T03:33:10;2.13;;;1.88;;
54561;SDS011;69047;53.358;-1.486;2023-04-29T03:35:35;3.03;;;1.83;;
54561;SDS011;69047;53.358;-1.486;2023-04-29T03:38:01;3.20;;;1.80;;
54561;SDS011;69047;53.358;-1.486;2023-04-29T03:40:26;3.35;;;2.15;;
54561;SDS011;69047;53.358;-1.486;2023-04-29T03:42:52;3.28;;;1.65;;
54561;SDS011;69047;53.358;-1.486;2023-04-29T03:45:17;2.65;;;1.92;;
54561;SDS011;69047;53.358;-1.486;2023-04-29T03:47:42;2.45;;;1.90;;
54561;SDS011;69047;53.358;-1.486;2023-04-29T03:50:08;2.78;;;1.70;;
54561;SDS011;69047;53.358;-1.486;2023-04-29T03:52:34;3.35;;;2.00;;
54561;SDS011;69047;53.358;-1.486;2023-04-29T03:55:02;4.07;;;1.48;;
54561;SDS011;69047;53.358;-1.486;2023-04-29T03:57:27;3.17;;;1.90;;
54561;SDS011;69047;53.358;-1.486;2023-04-29T03:59:53;2.47;;;1.70;;
54561;SDS011;69047;53.358;-1.486;2023-04-29T04:02:18;2.97;;;2.03;;
54561;SDS011;69047;53.358;-1.486;2023-04-29T04:04:44;3.45;;;1.70;;
54561;SDS011;69047;53.358;-1.486;2023-04-29T04:07:09;2.40;;;1.77;;
54561;SDS011;69047;53.358;-1.486;2023-04-29T04:09:35;3.75;;;2.17;;
54561;SDS011;69047;53.358;-1.486;2023-04-29T04:12:01;2.00;;;1.67;;
54561;SDS011;69047;53.358;-1.486;2023-04-29T04:14:27;3.25;;;2.13;;
54561;SDS011;69047;53.358;-1.486;2023-04-29T04:16:53;2.55;;;1.92;;
54561;SDS011;69047;53.358;-1.486;2023-04-29T04:19:18;2.63;;;1.60;;
54561;SDS011;69047;53.358;-1.486;2023-04-29T04:21:44;2.58;;;2.10;;
54561;SDS011;69047;53.358;-1.486;2023-04-29T04:24:09;1.90;;;1.60;;
54561;SDS011;69047;53.358;-1.486;2023-04-29T04:26:35;3.50;;;1.58;;
54561;SDS011;69047;53.358;-1.486;2023-04-29T04:29:00;2.63;;;1.77;;
54561;SDS011;69047;53.358;-1.486;2023-04-29T04:31:25;1.77;;;1.65;;
54561;SDS011;69047;53.358;-1.486;2023-04-29T04:33:51;2.67;;;1.77;;
54561;SDS011;69047;53.358;-1.486;2023-04-29T04:36:16;2.78;;;1.73;;
54561;SDS011;69047;53.358;-1.486;2023-04-29T04:38:41;1.88;;;1.50;;
54561;SDS011;69047;53.358;-1.486;2023-04-29T04:41:07;2.47;;;1.65;;
54561;SDS011;69047;53.358;-1.486;2023-04-29T04:43:32;2.03;;;1.73;;
54561;SDS011;69047;53.358;-1.486;2023-04-29T04:45:58;2.65;;;1.95;;
54561;SDS011;69047;53.358;-1.486;2023-04-29T04:48:23;2.80;;;1.70;;
54561;SDS011;69047;53.358;-1.486;2023-04-29T04:50:48;1.90;;;1.58;;
54561;SDS011;69047;53.358;-1.486;2023-04-29T04:53:14;2.13;;;1.52;;
54561;SDS011;69047;53.358;-1.486;2023-04-29T04:55:39;2.92;;;1.80;;
54561;SDS011;69047;53.358;-1.486;2023-04-29T04:58:05;3.40;;;1.90;;
54561;SDS011;69047;53.358;-1.486;2023-04-29T05:00:30;3.60;;;1.73;;
54561;SDS011;69047;53.358;-1.486;2023-04-29T05:02:55;2.83;;;1.65;;
54561;SDS011;69047;53.358;-1.486;2023-04-29T05:05:21;2.53;;;1.80;;
54561;SDS011;69047;53.358;-1.486;2023-04-29T05:07:46;2.47;;;1.88;;
54561;SDS011;69047;53.358;-1.486;2023-04-29T05:10:12;2.83;;;1.70;;
54561;SDS011;69047;53.358;-1.486;2023-04-29T05:12:37;2.08;;;1.52;;
54561;SDS011;69047;53.358;-1.486;2023-04-29T05:15:03;2.13;;;1.80;;
54561;SDS011;69047;53.358;-1.486;2023-04-29T05:17:29;1.80;;;1.60;;
54561;SDS011;69047;53.358;-1.486;2023-04-29T05:19:54;2.72;;;1.80;;
54561;SDS011;69047;53.358;-1.486;2023-04-29T05:22:20;2.22;;;1.55;;
54561;SDS011;69047;53.358;-1.486;2023-04-29T05:24:46;3.05;;;2.05;;
54561;SDS011;69047;53.358;-1.486;2023-04-29T05:27:15;2.22;;;1.67;;
54561;SDS011;69047;53.358;-1.486;2023-04-29T05:29:41;3.13;;;2.25;;
54561;SDS011;69047;53.358;-1.486;2023-04-29T05:32:06;3.85;;;1.73;;
54561;SDS011;69047;53.358;-1.486;2023-04-29T05:34:31;3.47;;;2.03;;
54561;SDS011;69047;53.358;-1.486;2023-04-29T05:36:57;3.08;;;1.90;;
54561;SDS011;69047;53.358;-1.486;2023-04-29T05:39:22;2.55;;;1.90;;
54561;SDS011;69047;53.358;-1.486;2023-04-29T05:41:48;2.70;;;1.60;;
54561;SDS011;69047;53.358;-1.486;2023-04-29T05:44:14;2.95;;;2.03;;
54561;SDS011;69047;53.358;-1.486;2023-04-29T05:46:39;2.13;;;1.70;;
54561;SDS011;69047;53.358;-1.486;2023-04-29T05:49:05;2.22;;;1.73;;
54561;SDS011;69047;53.358;-1.486;2023-04-29T05:51:30;3.78;;;1.75;;
54561;SDS011;69047;53.358;-1.486;2023-04-29T05:53:56;2.30;;;1.58;;
54561;SDS011;69047;53.358;-1.486;2023-04-29T05:56:23;3.10;;;1.58;;
54561;SDS011;69047;53.358;-1.486;2023-04-29T05:58:49;2.42;;;1.55;;
54561;SDS011;69047;53.358;-1.486;2023-04-29T06:01:14;2.63;;;2.03;;
54561;SDS011;69047;53.358;-1.486;2023-04-29T06:03:41;3.53;;;2.00;;
54561;SDS011;69047;53.358;-1.486;2023-04-29T06:06:07;2.17;;;1.30;;
54561;SDS011;69047;53.358;-1.486;2023-04-29T06:08:32;3.63;;;2.10;;
54561;SDS011;69047;53.358;-1.486;2023-04-29T06:10:58;2.88;;;2.03;;
54561;SDS011;69047;53.358;-1.486;2023-04-29T06:13:23;3.92;;;2.50;;
54561;SDS011;69047;53.358;-1.486;2023-04-29T06:15:49;4.15;;;2.78;;
54561;SDS011;69047;53.358;-1.486;2023-04-29T06:18:15;3.13;;;2.40;;
54561;SDS011;69047;53.358;-1.486;2023-04-29T06:20:40;3.70;;;2.78;;
54561;SDS011;69047;53.358;-1.486;2023-04-29T06:23:06;5.30;;;2.58;;
54561;SDS011;69047;53.358;-1.486;2023-04-29T06:25:31;6.00;;;3.20;;
54561;SDS011;69047;53.358;-1.486;2023-04-29T06:28:01;5.90;;;3.67;;
54561;SDS011;69047;53.358;-1.486;2023-04-29T06:30:28;3.72;;;2.70;;
54561;SDS011;69047;53.358;-1.486;2023-04-29T06:32:53;6.85;;;3.10;;
54561;SDS011;69047;53.358;-1.486;2023-04-29T06:35:19;14.23;;;3.13;;
54561;SDS011;69047;53.358;-1.486;2023-04-29T06:37:44;4.85;;;2.50;;
54561;SDS011;69047;53.358;-1.486;2023-04-29T06:40:10;2.58;;;1.85;;
54561;SDS011;69047;53.358;-1.486;2023-04-29T06:42:36;4.35;;;2.38;;
54561;SDS011;69047;53.358;-1.486;2023-04-29T06:45:01;4.57;;;2.00;;
54561;SDS011;69047;53.358;-1.486;2023-04-29T06:47:27;4.20;;;2.15;;
54561;SDS011;69047;53.358;-1.486;2023-04-29T06:49:52;5.03;;;2.08;;
54561;SDS011;69047;53.358;-1.486;2023-04-29T06:52:18;3.92;;;2.03;;
54561;SDS011;69047;53.358;-1.486;2023-04-29T06:54:43;7.20;;;1.90;;
54561;SDS011;69047;53.358;-1.486;2023-04-29T06:57:09;7.55;;;2.22;;
54561;SDS011;69047;53.358;-1.486;2023-04-29T06:59:34;4.50;;;2.45;;
54561;SDS011;69047;53.358;-1.486;2023-04-29T07:01:59;4.82;;;2.80;;
54561;SDS011;69047;53.358;-1.486;2023-04-29T07:04:25;4.72;;;2.10;;
54561;SDS011;69047;53.358;-1.486;2023-04-29T07:06:50;4.00;;;1.52;;
54561;SDS011;69047;53.358;-1.486;2023-04-29T07:09:17;3.53;;;1.90;;
54561;SDS011;69047;53.358;-1.486;2023-04-29T07:11:43;4.43;;;1.90;;
54561;SDS011;69047;53.358;-1.486;2023-04-29T07:14:08;3.47;;;1.90;;
54561;SDS011;69047;53.358;-1.486;2023-04-29T07:16:34;3.40;;;1.77;;
54561;SDS011;69047;53.358;-1.486;2023-04-29T07:18:59;3.95;;;2.08;;
54561;SDS011;69047;53.358;-1.486;2023-04-29T07:21:25;5.22;;;1.83;;
54561;SDS011;69047;53.358;-1.486;2023-04-29T07:23:51;3.50;;;2.05;;
54561;SDS011;69047;53.358;-1.486;2023-04-29T07:26:16;4.68;;;1.75;;
54561;SDS011;69047;53.358;-1.486;2023-04-29T07:28:42;3.30;;;1.63;;
54561;SDS011;69047;53.358;-1.486;2023-04-29T07:31:08;3.20;;;1.70;;
54561;SDS011;69047;53.358;-1.486;2023-04-29T07:33:34;3.10;;;1.83;;
54561;SDS011;69047;53.358;-1.486;2023-04-29T07:36:00;4.07;;;1.92;;
54561;SDS011;69047;53.358;-1.486;2023-04-29T07:38:26;4.90;;;1.88;;
54561;SDS011;69047;53.358;-1.486;2023-04-29T07:40:51;5.65;;;1.52;;
54561;SDS011;69047;53.358;-1.486;2023-04-29T07:43:17;2.30;;;1.58;;
54561;SDS011;69047;53.358;-1.486;2023-04-29T07:45:43;2.65;;;1.42;;
54561;SDS011;69047;53.358;-1.486;2023-04-29T07:48:08;3.08;;;1.23;;
54561;SDS011;69047;53.358;-1.486;2023-04-29T07:50:34;2.65;;;1.50;;
54561;SDS011;69047;53.358;-1.486;2023-04-29T07:53:00;2.67;;;1.20;;
54561;SDS011;69047;53.358;-1.486;2023-04-29T07:55:26;4.40;;;1.27;;
54561;SDS011;69047;53.358;-1.486;2023-04-29T07:57:53;1.73;;;1.25;;
54561;SDS011;69047;53.358;-1.486;2023-04-29T08:00:20;1.80;;;1.10;;
54561;SDS011;69047;53.358;-1.486;2023-04-29T08:02:45;5.75;;;1.48;;
54561;SDS011;69047;53.358;-1.486;2023-04-29T08:05:11;3.28;;;1.10;;
54561;SDS011;69047;53.358;-1.486;2023-04-29T08:07:37;3.45;;;1.35;;
54561;SDS011;69047;53.358;-1.486;2023-04-29T08:10:02;2.00;;;1.33;;
54561;SDS011;69047;53.358;-1.486;2023-04-29T08:12:28;3.40;;;1.10;;
54561;SDS011;69047;53.358;-1.486;2023-04-29T08:14:55;4.72;;;1.10;;
54561;SDS011;69047;53.358;-1.486;2023-04-29T08:17:20;1.55;;;1.13;;
54561;SDS011;69047;53.358;-1.486;2023-04-29T08:19:45;1.60;;;0.95;;
54561;SDS011;69047;53.358;-1.486;2023-04-29T08:22:11;2.80;;;1.02;;
54561;SDS011;69047;53.358;-1.486;2023-04-29T08:24:38;2.20;;;1.25;;
54561;SDS011;69047;53.358;-1.486;2023-04-29T08:27:03;4.03;;;1.05;;
54561;SDS011;69047;53.358;-1.486;2023-04-29T08:29:31;3.22;;;1.30;;
54561;SDS011;69047;53.358;-1.486;2023-04-29T08:31:57;0.98;;;0.88;;
54561;SDS011;69047;53.358;-1.486;2023-04-29T08:34:22;3.00;;;1.20;;
54561;SDS011;69047;53.358;-1.486;2023-04-29T08:36:48;1.70;;;1.55;;
54561;SDS011;69047;53.358;-1.486;2023-04-29T08:39:13;6.63;;;1.60;;
54561;SDS011;69047;53.358;-1.486;2023-04-29T08:41:39;1.92;;;1.42;;
54561;SDS011;69047;53.358;-1.486;2023-04-29T08:44:04;1.90;;;1.33;;
54561;SDS011;69047;53.358;-1.486;2023-04-29T08:46:30;2.75;;;1.52;;
54561;SDS011;69047;53.358;-1.486;2023-04-29T08:48:55;2.40;;;1.13;;
54561;SDS011;69047;53.358;-1.486;2023-04-29T08:51:22;1.80;;;1.10;;
54561;SDS011;69047;53.358;-1.486;2023-04-29T08:53:47;1.23;;;1.13;;
54561;SDS011;69047;53.358;-1.486;2023-04-29T08:56:14;4.85;;;1.27;;
54561;SDS011;69047;53.358;-1.486;2023-04-29T08:58:42;2.00;;;0.73;;
54561;SDS011;69047;53.358;-1.486;2023-04-29T09:01:08;5.45;;;1.10;;
54561;SDS011;69047;53.358;-1.486;2023-04-29T09:04:23;1.50;;;1.10;;
54561;SDS011;69047;53.358;-1.486;2023-04-29T09:06:29;1.15;;;1.00;;
54561;SDS011;69047;53.358;-1.486;2023-04-29T09:08:54;1.77;;;1.20;;
54561;SDS011;69047;53.358;-1.486;2023-04-29T09:11:20;0.80;;;0.70;;
54561;SDS011;69047;53.358;-1.486;2023-04-29T09:13:46;2.53;;;1.00;;
54561;SDS011;69047;53.358;-1.486;2023-04-29T09:16:11;1.92;;;1.05;;
54561;SDS011;69047;53.358;-1.486;2023-04-29T09:21:17;2.88;;;0.68;;
54561;SDS011;69047;53.358;-1.486;2023-04-29T09:23:44;1.75;;;0.90;;
54561;SDS011;69047;53.358;-1.486;2023-04-29T09:26:10;4.63;;;1.00;;
54561;SDS011;69047;53.358;-1.486;2023-04-29T09:28:35;1.73;;;1.20;;
54561;SDS011;69047;53.358;-1.486;2023-04-29T09:31:01;3.20;;;1.05;;
54561;SDS011;69047;53.358;-1.486;2023-04-29T09:33:30;3.28;;;1.30;;
54561;SDS011;69047;53.358;-1.486;2023-04-29T09:35:56;3.70;;;1.23;;
54561;SDS011;69047;53.358;-1.486;2023-04-29T09:38:21;1.88;;;0.90;;
54561;SDS011;69047;53.358;-1.486;2023-04-29T09:40:47;2.03;;;1.40;;
54561;SDS011;69047;53.358;-1.486;2023-04-29T09:43:13;1.30;;;0.90;;
54561;SDS011;69047;53.358;-1.486;2023-04-29T09:45:46;3.28;;;0.93;;
54561;SDS011;69047;53.358;-1.486;2023-04-29T09:48:12;2.85;;;1.08;;
54561;SDS011;69047;53.358;-1.486;2023-04-29T09:50:42;5.75;;;0.98;;
54561;SDS011;69047;53.358;-1.486;2023-04-29T09:53:09;1.38;;;1.08;;
54561;SDS011;69047;53.358;-1.486;2023-04-29T09:55:35;2.45;;;1.10;;
54561;SDS011;69047;53.358;-1.486;2023-04-29T09:58:31;1.60;;;1.23;;
54561;SDS011;69047;53.358;-1.486;2023-04-29T10:01:01;2.47;;;1.02;;
54561;SDS011;69047;53.358;-1.486;2023-04-29T10:03:34;1.88;;;0.90;;
54561;SDS011;69047;53.358;-1.486;2023-04-29T10:06:02;8.95;;;1.17;;
54561;SDS011;69047;53.358;-1.486;2023-04-29T10:08:29;5.45;;;1.10;;
54561;SDS011;69047;53.358;-1.486;2023-04-29T10:10:56;3.63;;;1.08;;
54561;SDS011;69047;53.358;-1.486;2023-04-29T10:13:24;2.10;;;1.00;;
54561;SDS011;69047;53.358;-1.486;2023-04-29T10:16:03;1.50;;;1.00;;
54561;SDS011;69047;53.358;-1.486;2023-04-29T10:18:48;1.95;;;1.15;;
54561;SDS011;69047;53.358;-1.486;2023-04-29T10:21:16;2.13;;;0.90;;
54561;SDS011;69047;53.358;-1.486;2023-04-29T10:23:42;2.47;;;1.30;;
54561;SDS011;69047;53.358;-1.486;2023-04-29T10:26:09;6.93;;;1.30;;
54561;SDS011;69047;53.358;-1.486;2023-04-29T10:28:36;1.40;;;1.15;;
54561;SDS011;69047;53.358;-1.486;2023-04-29T10:31:03;1.30;;;0.75;;
54561;SDS011;69047;53.358;-1.486;2023-04-29T10:33:31;2.47;;;0.95;;
54561;SDS011;69047;53.358;-1.486;2023-04-29T10:35:59;1.75;;;0.93;;
54561;SDS011;69047;53.358;-1.486;2023-04-29T10:38:30;1.13;;;0.88;;
54561;SDS011;69047;53.358;-1.486;2023-04-29T10:41:08;2.35;;;1.00;;
54561;SDS011;69047;53.358;-1.486;2023-04-29T10:43:39;1.73;;;0.88;;
54561;SDS011;69047;53.358;-1.486;2023-04-29T10:46:24;3.88;;;1.10;;
54561;SDS011;69047;53.358;-1.486;2023-04-29T10:48:57;1.80;;;0.93;;
54561;SDS011;69047;53.358;-1.486;2023-04-29T10:51:41;1.90;;;1.00;;
54561;SDS011;69047;53.358;-1.486;2023-04-29T10:54:11;1.05;;;0.80;;
54561;SDS011;69047;53.358;-1.486;2023-04-29T10:56:41;2.55;;;0.95;;
54561;SDS011;69047;53.358;-1.486;2023-04-29T10:59:15;1.65;;;0.88;;
54561;SDS011;69047;53.358;-1.486;2023-04-29T11:01:53;1.02;;;0.88;;
54561;SDS011;69047;53.358;-1.486;2023-04-29T11:04:19;2.28;;;1.10;;
54561;SDS011;69047;53.358;-1.486;2023-04-29T11:06:46;1.80;;;1.23;;
54561;SDS011;69047;53.358;-1.486;2023-04-29T11:09:20;2.28;;;1.45;;
54561;SDS011;69047;53.358;-1.486;2023-04-29T11:11:54;1.65;;;0.80;;
54561;SDS011;69047;53.358;-1.486;2023-04-29T11:14:29;1.02;;;0.73;;
54561;SDS011;69047;53.358;-1.486;2023-04-29T11:16:57;1.20;;;0.88;;
54561;SDS011;69047;53.358;-1.486;2023-04-29T11:19:28;3.42;;;0.90;;
54561;SDS011;69047;53.358;-1.486;2023-04-29T11:24:47;2.17;;;1.20;;
54561;SDS011;69047;53.358;-1.486;2023-04-29T11:27:14;1.80;;;1.02;;
54561;SDS011;69047;53.358;-1.486;2023-04-29T11:29:40;0.95;;;0.85;;
54561;SDS011;69047;53.358;-1.486;2023-04-29T11:32:06;4.03;;;1.05;;
54561;SDS011;69047;53.358;-1.486;2023-04-29T11:34:31;1.40;;;0.90;;
54561;SDS011;69047;53.358;-1.486;2023-04-29T11:36:57;1.40;;;1.02;;
54561;SDS011;69047;53.358;-1.486;2023-04-29T11:39:22;2.50;;;0.90;;
54561;SDS011;69047;53.358;-1.486;2023-04-29T11:41:48;2.05;;;1.05;;
54561;SDS011;69047;53.358;-1.486;2023-04-29T11:44:13;2.88;;;1.02;;
54561;SDS011;69047;53.358;-1.486;2023-04-29T11:46:40;2.58;;;0.63;;
54561;SDS011;69047;53.358;-1.486;2023-04-29T11:49:05;2.88;;;0.90;;
54561;SDS011;69047;53.358;-1.486;2023-04-29T11:51:31;0.95;;;0.90;;
54561;SDS011;69047;53.358;-1.486;2023-04-29T11:53:56;3.22;;;1.27;;
54561;SDS011;69047;53.358;-1.486;2023-04-29T11:56:22;1.52;;;0.55;;
54561;SDS011;69047;53.358;-1.486;2023-04-29T11:58:49;2.33;;;1.10;;
54561;SDS011;69047;53.358;-1.486;2023-04-29T12:01:18;1.42;;;0.80;;
54561;SDS011;69047;53.358;-1.486;2023-04-29T12:03:50;1.20;;;0.63;;
54561;SDS011;69047;53.358;-1.486;2023-04-29T12:06:24;1.80;;;1.25;;
54561;SDS011;69047;53.358;-1.486;2023-04-29T12:08:51;3.45;;;1.02;;
54561;SDS011;69047;53.358;-1.486;2023-04-29T12:11:17;1.35;;;1.00;;
54561;SDS011;69047;53.358;-1.486;2023-04-29T12:13:42;4.40;;;1.00;;
54561;SDS011;69047;53.358;-1.486;2023-04-29T12:16:08;4.65;;;0.90;;
54561;SDS011;69047;53.358;-1.486;2023-04-29T12:18:35;1.50;;;0.93;;
54561;SDS011;69047;53.358;-1.486;2023-04-29T12:21:02;0.80;;;0.80;;
54561;SDS011;69047;53.358;-1.486;2023-04-29T12:23:28;3.08;;;1.20;;
54561;SDS011;69047;53.358;-1.486;2023-04-29T12:25:56;2.10;;;1.20;;
54561;SDS011;69047;53.358;-1.486;2023-04-29T12:28:23;3.97;;;1.33;;
54561;SDS011;69047;53.358;-1.486;2023-04-29T12:30:50;1.20;;;0.82;;
54561;SDS011;69047;53.358;-1.486;2023-04-29T12:33:18;2.63;;;1.52;;
54561;SDS011;69047;53.358;-1.486;2023-04-29T12:35:51;4.63;;;2.05;;
54561;SDS011;69047;53.358;-1.486;2023-04-29T12:40:51;2.92;;;1.77;;
54561;SDS011;69047;53.358;-1.486;2023-04-29T12:43:17;5.15;;;1.30;;
54561;SDS011;69047;53.358;-1.486;2023-04-29T12:45:43;2.88;;;1.65;;
54561;SDS011;69047;53.358;-1.486;2023-04-29T12:48:08;4.30;;;2.05;;
54561;SDS011;69047;53.358;-1.486;2023-04-29T12:50:36;6.05;;;2.03;;
54561;SDS011;69047;53.358;-1.486;2023-04-29T12:53:03;6.68;;;1.60;;
54561;SDS011;69047;53.358;-1.486;2023-04-29T12:55:30;3.80;;;1.45;;
54561;SDS011;69047;53.358;-1.486;2023-04-29T12:57:56;5.50;;;1.92;;
54561;SDS011;69047;53.358;-1.486;2023-04-29T13:00:22;7.47;;;1.85;;
54561;SDS011;69047;53.358;-1.486;2023-04-29T13:02:48;3.30;;;1.70;;
54561;SDS011;69047;53.358;-1.486;2023-04-29T13:05:13;2.58;;;1.67;;
54561;SDS011;69047;53.358;-1.486;2023-04-29T13:07:39;2.83;;;1.80;;
54561;SDS011;69047;53.358;-1.486;2023-04-29T13:10:04;3.97;;;1.85;;
54561;SDS011;69047;53.358;-1.486;2023-04-29T13:12:31;5.07;;;1.85;;
54561;SDS011;69047;53.358;-1.486;2023-04-29T13:14:57;2.40;;;1.77;;
54561;SDS011;69047;53.358;-1.486;2023-04-29T13:17:22;3.35;;;1.60;;
54561;SDS011;69047;53.358;-1.486;2023-04-29T13:19:48;2.80;;;1.98;;
54561;SDS011;69047;53.358;-1.486;2023-04-29T13:22:13;2.90;;;1.75;;
54561;SDS011;69047;53.358;-1.486;2023-04-29T13:24:38;7.88;;;1.77;;
54561;SDS011;69047;53.358;-1.486;2023-04-29T13:27:04;5.25;;;1.83;;
54561;SDS011;69047;53.358;-1.486;2023-04-29T13:29:30;18.77;;;2.35;;
54561;SDS011;69047;53.358;-1.486;2023-04-29T13:31:55;14.15;;;1.92;;
54561;SDS011;69047;53.358;-1.486;2023-04-29T13:34:20;4.22;;;1.80;;
54561;SDS011;69047;53.358;-1.486;2023-04-29T13:36:46;10.38;;;2.97;;
54561;SDS011;69047;53.358;-1.486;2023-04-29T13:39:11;7.45;;;2.08;;
54561;SDS011;69047;53.358;-1.486;2023-04-29T13:41:37;10.30;;;3.00;;
54561;SDS011;69047;53.358;-1.486;2023-04-29T13:44:02;10.35;;;2.35;;
54561;SDS011;69047;53.358;-1.486;2023-04-29T13:46:28;8.25;;;2.15;;
54561;SDS011;69047;53.358;-1.486;2023-04-29T13:48:53;5.70;;;1.75;;
54561;SDS011;69047;53.358;-1.486;2023-04-29T13:51:19;7.90;;;2.78;;
54561;SDS011;69047;53.358;-1.486;2023-04-29T13:53:44;7.10;;;4.50;;
54561;SDS011;69047;53.358;-1.486;2023-04-29T13:56:10;14.43;;;6.90;;
54561;SDS011;69047;53.358;-1.486;2023-04-29T13:58:35;13.07;;;8.73;;
54561;SDS011;69047;53.358;-1.486;2023-04-29T14:01:01;12.70;;;7.45;;
54561;SDS011;69047;53.358;-1.486;2023-04-29T14:03:26;10.18;;;7.28;;
54561;SDS011;69047;53.358;-1.486;2023-04-29T14:05:52;9.70;;;7.28;;
54561;SDS011;69047;53.358;-1.486;2023-04-29T14:08:17;11.55;;;6.45;;
54561;SDS011;69047;53.358;-1.486;2023-04-29T14:10:42;11.10;;;6.28;;
54561;SDS011;69047;53.358;-1.486;2023-04-29T14:13:08;9.65;;;5.10;;
54561;SDS011;69047;53.358;-1.486;2023-04-29T14:15:33;9.52;;;4.70;;
54561;SDS011;69047;53.358;-1.486;2023-04-29T14:17:59;6.05;;;4.40;;
54561;SDS011;69047;53.358;-1.486;2023-04-29T14:20:24;6.20;;;3.72;;
54561;SDS011;69047;53.358;-1.486;2023-04-29T14:22:50;5.20;;;4.35;;
54561;SDS011;69047;53.358;-1.486;2023-04-29T14:25:15;8.35;;;3.90;;
54561;SDS011;69047;53.358;-1.486;2023-04-29T14:27:40;9.07;;;4.72;;
54561;SDS011;69047;53.358;-1.486;2023-04-29T14:30:06;6.45;;;4.18;;
54561;SDS011;69047;53.358;-1.486;2023-04-29T14:32:32;5.47;;;3.60;;
54561;SDS011;69047;53.358;-1.486;2023-04-29T14:34:58;4.85;;;3.25;;
54561;SDS011;69047;53.358;-1.486;2023-04-29T14:37:23;11.40;;;4.32;;
54561;SDS011;69047;53.358;-1.486;2023-04-29T14:39:49;6.93;;;3.92;;
54561;SDS011;69047;53.358;-1.486;2023-04-29T14:42:14;4.72;;;3.65;;
54561;SDS011;69047;53.358;-1.486;2023-04-29T14:44:39;6.30;;;3.63;;
54561;SDS011;69047;53.358;-1.486;2023-04-29T14:47:05;8.25;;;3.85;;
54561;SDS011;69047;53.358;-1.486;2023-04-29T14:49:31;3.65;;;2.95;;
54561;SDS011;69047;53.358;-1.486;2023-04-29T14:51:57;4.43;;;3.50;;